Time;durP1;ratioP1;P1;durP2;ratioP2;P2;SDS_P1;SDS_P2;PMS_P1;PMS_P2;Temp;Humidity;BMP_temperature;BMP_pressure;BME280_temperature;BME280_humidity;BME280_pressure;Samples;Min_cycle;Max_cycle;Signal;HPM_P1;HPM_P2
2023/01/04 00:02:57;;;;;;;6.83;0.93;;;;;;;9.04;55.53;101091.16;10325748;28;20221;-84
2023/01/04 00:08:19;;;;;;;1.57;0.53;;;;;;;9.22;54.60;101090.53;10318135;28;20197;-83
2023/01/04 00:13:42;;;;;;;2.03;0.73;;;;;;;8.67;56.72;101066.41;10335185;28;20193;-85
2023/01/04 00:19:04;;;;;;;3.23;0.60;;;;;;;8.66;56.90;101047.13;10333558;28;20260;-83
2023/01/04 00:24:26;;;;;;;3.63;0.57;;;;;;;8.71;56.93;101039.56;10332479;28;20217;-83
2023/01/04 00:29:48;;;;;;;2.70;0.90;;;;;;;8.81;56.55;101038.66;10321332;28;20201;-82
2023/01/04 00:35:11;;;;;;;0.73;0.57;;;;;;;9.04;56.25;101021.19;10321753;28;20206;-83
2023/01/04 00:40:33;;;;;;;4.07;0.57;;;;;;;8.72;56.73;101010.47;10337446;28;20292;-83
2023/01/04 00:45:55;;;;;;;4.00;0.60;;;;;;;9.17;55.11;101020.56;10346273;28;20572;-83
2023/01/04 00:51:17;;;;;;;2.17;0.43;;;;;;;9.12;55.61;101000.19;10337468;28;20598;-84
2023/01/04 00:56:40;;;;;;;2.83;0.93;;;;;;;9.25;55.34;100989.19;10339878;28;20222;-82
2023/01/04 01:02:02;;;;;;;4.03;0.80;;;;;;;8.77;56.96;100967.63;10346454;28;20661;-83
2023/01/04 01:07:24;;;;;;;3.70;0.50;;;;;;;9.08;56.62;100969.13;10337628;28;20269;-83
2023/01/04 01:12:46;;;;;;;3.53;0.40;;;;;;;8.86;57.21;100940.75;10371833;28;20202;-84
2023/01/04 01:18:08;;;;;;;2.00;0.77;;;;;;;8.61;58.48;100952.06;10295652;28;20214;-84
2023/01/04 01:23:30;;;;;;;5.07;0.40;;;;;;;8.89;58.66;100940.19;10308946;28;20279;-84
2023/01/04 01:28:53;;;;;;;3.13;0.50;;;;;;;8.97;58.92;100942.34;10333902;28;20264;-85
2023/01/04 01:34:15;;;;;;;2.00;0.30;;;;;;;9.18;59.41;100907.47;10335349;28;20202;-84
2023/01/04 01:39:37;;;;;;;5.33;0.53;;;;;;;8.66;61.56;100913.72;10344655;28;20245;-84
2023/01/04 01:45:23;;;;;;;3.23;0.50;;;;;;;9.40;60.14;100907.06;10338037;28;20369;-83
2023/01/04 01:50:49;;;;;;;2.53;0.33;;;;;;;8.83;62.34;100896.56;10326863;28;20206;-83
2023/01/04 01:56:15;;;;;;;2.40;0.50;;;;;;;8.65;64.34;100895.25;10356655;28;20264;-83
2023/01/04 02:01:37;;;;;;;2.77;0.50;;;;;;;8.38;65.40;100884.50;10334061;28;20268;-82
2023/01/04 02:07:00;;;;;;;4.13;0.70;;;;;;;8.94;63.84;100881.38;10336777;28;20272;-85
2023/01/04 02:12:22;;;;;;;7.37;1.37;;;;;;;8.37;64.78;100868.84;10337970;28;20193;-83
2023/01/04 02:18:02;;;;;;;2.43;0.50;;;;;;;9.04;64.11;100870.09;10342293;28;20483;-82
2023/01/04 02:23:45;;;;;;;2.67;0.60;;;;;;;8.83;64.88;100869.44;10343882;28;20213;-83
2023/01/04 02:29:50;;;;;;;6.77;0.60;;;;;;;9.13;63.75;100851.56;10340380;28;20515;-83
2023/01/04 02:35:18;;;;;;;5.40;0.63;;;;;;;9.29;64.71;100844.69;10320701;28;20198;-83
2023/01/04 02:41:00;;;;;;;1.40;0.40;;;;;;;8.83;67.09;100827.47;10336984;28;20274;-84
2023/01/04 02:46:28;;;;;;;2.53;0.47;;;;;;;8.55;69.09;100837.44;10334903;28;20618;-84
2023/01/04 02:51:50;;;;;;;3.50;0.50;;;;;;;8.54;70.11;100830.19;10326763;28;20229;-83
2023/01/04 02:57:24;;;;;;;3.43;0.60;;;;;;;8.94;69.96;100811.44;10340175;28;20607;-85
2023/01/04 03:08:54;;;;;;;1.80;0.40;;;;;;;8.22;76.81;100807.47;10328555;28;20256;-84
2023/01/04 03:14:19;;;;;;;0.93;0.47;;;;;;;8.58;71.82;100800.53;10334696;28;20191;-86
2023/01/04 03:19:50;;;;;;;2.93;0.77;;;;;;;8.51;71.96;100799.16;10323818;28;20282;-83
2023/01/04 03:37:01;;;;;;;10.77;0.77;;;;;;;8.75;71.96;100776.91;10339247;28;20198;-84
2023/01/04 03:48:32;;;;;;;2.30;0.60;;;;;;;8.75;71.92;100774.13;10347997;28;20272;-84
2023/01/04 03:54:07;;;;;;;1.80;0.50;;;;;;;8.57;73.33;100742.94;10325525;28;20731;-84
2023/01/04 03:59:30;;;;;;;2.73;0.53;;;;;;;9.08;71.79;100734.06;10316655;28;20306;-83
2023/01/04 04:10:32;;;;;;;4.90;0.57;;;;;;;9.12;71.68;100720.31;10305107;28;20201;-83
2023/01/04 04:15:55;;;;;;;0.53;0.40;;;;;;;8.86;72.11;100726.19;10336676;28;20201;-83
2023/01/04 04:21:17;;;;;;;1.03;0.40;;;;;;;8.64;72.85;100730.56;10336766;28;20574;-84
2023/01/04 04:26:39;;;;;;;1.57;0.73;;;;;;;8.97;72.46;100712.91;10338267;28;20218;-83
2023/01/04 04:32:01;;;;;;;1.83;0.70;;;;;;;8.95;73.21;100676.00;10332988;28;20226;-84
2023/01/04 04:37:25;;;;;;;1.37;0.33;;;;;;;8.99;72.42;100679.06;10313811;28;20197;-82
2023/01/04 04:42:47;;;;;;;3.37;0.57;;;;;;;8.91;73.28;100691.72;10341183;28;20237;-81
2023/01/04 04:48:10;;;;;;;5.60;0.60;;;;;;;9.25;72.69;100674.84;10300430;28;20280;-82
2023/01/04 04:53:32;;;;;;;4.07;0.50;;;;;;;9.12;74.11;100669.94;10335505;28;20244;-82
2023/01/04 04:58:54;;;;;;;1.20;0.67;;;;;;;9.51;71.87;100656.63;10341683;28;20202;-82
2023/01/04 05:04:18;;;;;;;1.40;0.30;;;;;;;9.05;74.23;100659.09;10324092;28;20217;-80
2023/01/04 05:09:40;;;;;;;1.17;0.77;;;;;;;9.14;74.14;100640.53;10327066;28;20254;-82
2023/01/04 05:15:02;;;;;;;1.53;0.40;;;;;;;9.49;72.19;100646.84;10344403;28;20189;-83
2023/01/04 05:20:24;;;;;;;0.47;0.30;;;;;;;9.11;74.35;100623.50;10338485;28;20198;-81
2023/01/04 05:25:52;;;;;;;3.10;0.20;;;;;;;9.85;72.29;100653.59;10331038;28;20217;-83
2023/01/04 05:31:14;;;;;;;0.37;0.30;;;;;;;9.51;72.55;100652.97;10315983;28;20265;-82
2023/01/04 05:36:36;;;;;;;0.83;0.20;;;;;;;9.43;73.48;100640.47;10319272;28;20657;-83
2023/01/04 05:47:39;;;;;;;1.10;0.20;;;;;;;9.50;72.45;100623.31;10333776;28;20276;-83
2023/01/04 05:53:01;;;;;;;0.20;0.20;;;;;;;9.98;72.52;100605.19;10298849;28;20239;-82
2023/01/04 05:58:23;;;;;;;0.33;0.10;;;;;;;10.19;70.63;100610.47;10334249;28;20291;-84
2023/01/04 06:03:46;;;;;;;0.53;0.37;;;;;;;9.99;71.47;100612.47;10321580;28;20244;-84
2023/01/04 06:09:08;;;;;;;3.40;0.40;;;;;;;10.15;70.24;100612.22;10316380;28;20594;-82
2023/01/04 06:14:30;;;;;;;0.40;0.30;;;;;;;10.49;69.58;100598.72;10346506;28;20194;-83
2023/01/04 06:19:52;;;;;;;1.10;0.30;;;;;;;10.57;69.29;100589.63;10321878;28;20256;-84
2023/01/04 06:25:14;;;;;;;2.00;0.20;;;;;;;9.88;71.75;100594.16;10335838;28;20284;-84
2023/01/04 06:30:36;;;;;;;0.33;0.33;;;;;;;9.96;71.09;100578.59;10350954;28;20197;-83
2023/01/04 06:35:59;;;;;;;2.00;0.30;;;;;;;10.26;69.51;100561.28;10329565;28;20224;-84
2023/01/04 06:41:21;;;;;;;0.20;0.10;;;;;;;10.55;68.34;100563.84;10318255;28;20268;-86
2023/01/04 06:46:44;;;;;;;0.23;0.20;;;;;;;10.63;68.54;100559.50;10335036;28;20225;-86
2023/01/04 06:52:06;;;;;;;0.27;0.10;;;;;;;10.57;69.14;100553.16;10342491;28;20210;-83
2023/01/04 06:57:29;;;;;;;1.73;0.20;;;;;;;10.45;69.91;100544.38;10329812;28;20260;-85
2023/01/04 07:02:51;;;;;;;0.10;0.07;;;;;;;10.36;70.93;100549.88;10334621;28;20253;-86
2023/01/04 07:08:14;;;;;;;0.53;0.10;;;;;;;10.17;71.58;100551.91;10317946;28;20504;-82
2023/01/04 07:13:36;;;;;;;1.60;0.10;;;;;;;10.24;71.96;100546.72;10324049;28;20202;-87
2023/01/04 07:18:58;;;;;;;0.10;0.10;;;;;;;10.27;72.33;100556.50;10328449;28;20272;-84
2023/01/04 07:24:20;;;;;;;0.30;0.10;;;;;;;10.70;70.11;100549.53;10333227;28;20198;-84
2023/01/04 07:29:43;;;;;;;0.63;0.10;;;;;;;10.65;69.79;100552.44;10311023;28;20259;-84
2023/01/04 07:35:05;;;;;;;0.20;0.10;;;;;;;10.49;71.98;100559.44;10321931;28;20248;-86
2023/01/04 07:40:27;;;;;;;1.13;0.30;;;;;;;10.35;72.96;100569.81;10341754;28;20327;-88
2023/01/04 07:45:49;;;;;;;0.40;0.30;;;;;;;11.01;70.49;100582.56;10329617;28;20214;-87
2023/01/04 07:51:12;;;;;;;2.10;0.30;;;;;;;10.31;73.83;100588.41;10330926;28;20210;-86
2023/01/04 07:56:34;;;;;;;1.17;0.40;;;;;;;10.65;72.72;100580.50;10331446;28;20218;-88
2023/01/04 08:01:56;;;;;;;0.43;0.33;;;;;;;10.20;74.76;100553.25;10326420;28;20226;-85
2023/01/04 08:07:18;;;;;;;0.43;0.30;;;;;;;10.07;75.66;100548.44;10314789;28;20698;-84
2023/01/04 08:12:41;;;;;;;0.40;0.40;;;;;;;10.05;75.74;100547.94;10343205;28;20321;-87
2023/01/04 08:18:03;;;;;;;1.30;0.40;;;;;;;10.50;74.54;100538.66;10330736;28;20201;-87
2023/01/04 08:23:25;;;;;;;0.70;0.50;;;;;;;10.47;73.73;100528.06;10323265;28;20205;-87
2023/01/04 08:28:50;;;;;;;1.37;0.60;;;;;;;10.27;74.44;100528.47;10327278;28;20218;-87
2023/01/04 08:34:12;;;;;;;0.70;0.40;;;;;;;10.10;75.52;100537.44;10324543;28;20205;-82
2023/01/04 08:39:35;;;;;;;0.60;0.60;;;;;;;10.42;75.41;100519.78;10329830;28;20245;-85
2023/01/04 08:44:59;;;;;;;0.97;0.70;;;;;;;10.67;73.65;100512.84;10320747;28;20241;-85
2023/01/04 08:50:22;;;;;;;1.10;0.50;;;;;;;11.18;71.45;100498.53;10314858;28;20190;-87
2023/01/04 08:55:49;;;;;;;1.43;0.40;;;;;;;10.83;73.11;100502.16;10332767;28;20233;-87
2023/01/04 09:01:12;;;;;;;1.27;0.40;;;;;;;11.44;71.49;100485.56;10335026;28;20201;-87
2023/01/04 09:06:36;;;;;;;0.53;0.30;;;;;;;10.54;73.70;100475.22;10340947;28;20210;-85
2023/01/04 09:11:58;;;;;;;0.63;0.30;;;;;;;11.87;69.23;100476.69;10325793;28;20464;-86
2023/01/04 09:17:21;;;;;;;0.60;0.30;;;;;;;11.76;69.21;100478.06;10339658;28;20209;-86
2023/01/04 09:22:44;;;;;;;1.07;0.53;;;;;;;11.69;68.90;100480.50;10334567;28;20202;-81
2023/01/04 09:28:06;;;;;;;0.93;0.20;;;;;;;11.02;72.47;100474.75;10327160;28;20714;-83
2023/01/04 09:33:28;;;;;;;1.17;0.30;;;;;;;11.37;72.51;100473.94;10325940;28;20217;-85
2023/01/04 09:38:54;;;;;;;0.40;0.20;;;;;;;10.97;74.77;100474.88;10329278;28;20256;-85
2023/01/04 09:44:33;;;;;;;1.17;0.40;;;;;;;11.88;72.58;100461.44;10318283;28;20194;-83
2023/01/04 09:50:03;;;;;;;0.60;0.53;;;;;;;11.96;72.88;100469.13;10331872;28;20550;-83
2023/01/04 09:55:30;;;;;;;0.57;0.47;;;;;;;11.78;73.44;100450.47;10331893;28;20277;-84
2023/01/04 10:01:05;;;;;;;1.90;0.60;;;;;;;11.63;71.88;100451.69;10325665;28;20189;-84
2023/01/04 10:06:27;;;;;;;2.07;0.33;;;;;;;11.67;72.96;100477.19;10357843;28;20217;-87
2023/01/04 10:12:04;;;;;;;0.20;0.20;;;;;;;12.05;72.00;100475.63;10340269;28;20268;-83
2023/01/04 10:17:50;;;;;;;0.80;0.40;;;;;;;11.90;71.52;100458.31;10359295;28;20267;-86
2023/01/04 10:23:44;;;;;;;2.23;0.40;;;;;;;12.35;69.92;100464.69;10336723;28;20222;-83
2023/01/04 10:29:13;;;;;;;1.47;0.50;;;;;;;11.81;71.57;100463.06;10334357;28;20213;-86
2023/01/04 10:34:41;;;;;;;1.70;0.40;;;;;;;12.50;70.41;100453.84;10329755;28;20599;-85
2023/01/04 10:40:11;;;;;;;1.17;0.50;;;;;;;11.96;71.96;100460.69;10352886;28;20662;-84
2023/01/04 10:45:44;;;;;;;1.80;0.37;;;;;;;11.75;74.28;100451.94;10346779;28;20221;-82
2023/01/04 10:51:07;;;;;;;0.27;0.20;;;;;;;12.02;73.52;100459.38;10333621;28;20263;-83
2023/01/04 10:56:36;;;;;;;0.40;0.37;;;;;;;12.22;73.14;100437.50;10348951;28;20268;-83
2023/01/04 11:02:21;;;;;;;1.33;0.30;;;;;;;11.56;75.04;100422.38;10304318;28;20317;-84
2023/01/04 11:07:54;;;;;;;1.13;0.40;;;;;;;11.94;73.55;100426.44;10322122;28;20229;-83
2023/01/04 11:13:18;;;;;;;1.53;0.20;;;;;;;12.50;71.83;100430.50;10333580;28;20202;-83
2023/01/04 11:18:42;;;;;;;1.23;0.47;;;;;;;11.88;74.34;100427.72;10341825;28;20396;-85
2023/01/04 11:24:05;;;;;;;1.10;0.60;;;;;;;12.12;72.68;100425.38;10311223;28;20531;-84
2023/01/04 11:29:28;;;;;;;1.70;0.70;;;;;;;12.53;70.60;100418.56;10331102;28;20254;-83
2023/01/04 11:34:56;;;;;;;0.97;0.50;;;;;;;12.23;72.07;100388.53;10338329;28;20252;-85
2023/01/04 11:40:21;;;;;;;0.90;0.60;;;;;;;12.22;73.18;100375.63;10337872;28;20228;-85
2023/01/04 11:45:53;;;;;;;0.50;0.50;;;;;;;12.28;72.71;100383.56;10350130;28;20556;-86
2023/01/04 11:51:26;;;;;;;0.90;0.37;;;;;;;12.30;73.26;100360.75;10318487;28;20270;-83
2023/01/04 11:57:16;;;;;;;0.47;0.43;;;;;;;11.97;74.49;100363.97;10335736;28;20217;-85
2023/01/04 12:02:38;;;;;;;1.20;0.33;;;;;;;12.15;72.51;100354.41;10323510;28;20202;-85
2023/01/04 12:08:02;;;;;;;0.50;0.50;;;;;;;11.81;74.00;100343.03;10328676;28;20276;-83
2023/01/04 12:13:27;;;;;;;0.70;0.60;;;;;;;11.94;74.28;100347.72;10332978;28;20198;-83
2023/01/04 12:18:49;;;;;;;1.13;0.70;;;;;;;12.79;72.00;100349.13;10332439;28;20190;-83
2023/01/04 12:24:17;;;;;;;1.30;0.80;;;;;;;12.15;75.39;100354.41;10340378;28;20271;-82
2023/01/04 12:29:44;;;;;;;1.97;0.93;;;;;;;11.77;76.93;100356.06;10340803;28;20229;-81
2023/01/04 12:35:45;;;;;;;2.10;0.50;;;;;;;12.73;73.92;100336.38;10326948;28;20289;-82
2023/01/04 12:41:07;;;;;;;0.83;0.60;;;;;;;12.28;75.74;100346.19;10331996;28;20221;-81
2023/01/04 12:52:10;;;;;;;1.63;0.60;;;;;;;12.29;75.09;100336.59;10341170;28;20502;-86
2023/01/04 12:57:33;;;;;;;0.80;0.50;;;;;;;12.29;75.98;100331.78;10337290;28;20213;-81
2023/01/04 13:03:25;;;;;;;1.70;0.30;;;;;;;12.38;75.81;100320.59;10330669;28;20201;-84
2023/01/04 13:08:48;;;;;;;0.30;0.30;;;;;;;12.65;74.26;100339.19;10337751;28;20642;-82
2023/01/04 13:14:19;;;;;;;0.67;0.30;;;;;;;12.47;75.41;100310.16;10329641;28;20259;-82
2023/01/04 13:19:42;;;;;;;0.60;0.20;;;;;;;12.59;74.05;100335.66;10333780;28;20229;-85
2023/01/04 13:25:11;;;;;;;0.57;0.10;;;;;;;12.45;73.88;100334.97;10326905;28;20197;-85
2023/01/04 13:30:38;;;;;;;0.10;0.10;;;;;;;12.12;75.75;100329.78;10333559;28;20242;-84
2023/01/04 13:36:03;;;;;;;2.60;0.20;;;;;;;12.40;74.17;100330.31;10336271;28;20225;-86
2023/01/04 13:41:25;;;;;;;3.60;0.20;;;;;;;12.93;74.03;100305.91;10345546;28;20717;-81
2023/01/04 13:46:48;;;;;;;0.10;0.10;;;;;;;12.77;74.45;100309.22;10324783;28;20256;-84
2023/01/04 13:52:21;;;;;;;0.47;0.10;;;;;;;12.79;74.39;100312.53;10337364;28;20219;-87
2023/01/04 13:57:55;;;;;;;0.30;0.20;;;;;;;12.35;75.03;100304.34;10345912;28;20221;-84
2023/01/04 14:03:24;;;;;;;1.00;0.40;;;;;;;12.60;73.98;100281.03;10321245;28;20209;-86
2023/01/04 14:09:22;;;;;;;0.33;0.10;;;;;;;12.35;75.56;100284.66;10337242;28;20249;-87
2023/01/04 14:14:49;;;;;;;0.97;0.20;;;;;;;12.51;74.77;100268.97;10306420;28;20210;-84
2023/01/04 14:20:11;;;;;;;0.60;0.17;;;;;;;12.91;73.37;100266.00;10337968;28;20704;-81
2023/01/04 14:25:37;;;;;;;0.17;0.10;;;;;;;13.23;71.69;100267.44;10331413;28;20244;-84
2023/01/04 14:31:05;;;;;;;0.10;0.10;;;;;;;13.06;72.64;100271.09;10326535;28;20786;-84
2023/01/04 14:36:31;;;;;;;0.10;0.10;;;;;;;13.07;72.36;100267.13;10337737;28;20245;-86
2023/01/04 14:41:56;;;;;;;1.73;0.53;;;;;;;13.67;71.61;100277.44;10328032;28;20257;-83
2023/01/04 14:47:19;;;;;;;0.20;0.20;;;;;;;13.01;74.26;100262.84;10335249;28;20249;-84
2023/01/04 14:52:52;;;;;;;0.63;0.10;;;;;;;12.73;75.43;100271.66;10307095;28;20257;-85
2023/01/04 14:58:14;;;;;;;0.50;0.13;;;;;;;13.59;72.36;100267.00;10331558;28;20281;-84
2023/01/04 15:03:37;;;;;;;0.43;0.37;;;;;;;13.09;74.74;100260.00;10341803;28;20201;-85
2023/01/04 15:08:59;;;;;;;0.50;0.30;;;;;;;13.13;75.54;100279.88;10335715;28;20226;-84
2023/01/04 15:14:22;;;;;;;0.87;0.20;;;;;;;13.41;72.67;100266.22;10333231;28;20201;-84
2023/01/04 15:19:44;;;;;;;0.20;0.20;;;;;;;13.48;73.01;100277.81;10318275;28;20198;-83
2023/01/04 15:25:07;;;;;;;4.23;0.43;;;;;;;13.29;74.51;100275.38;10339205;28;20502;-84
2023/01/04 15:30:29;;;;;;;1.07;0.20;;;;;;;13.02;75.68;100268.16;10318346;28;20380;-83
2023/01/04 15:36:00;;;;;;;0.67;0.60;;;;;;;12.91;76.75;100263.19;10332037;28;20233;-85
2023/01/04 15:47:03;;;;;;;1.73;0.97;;;;;;;13.09;73.61;100271.28;10322033;28;20209;-84
2023/01/04 15:52:25;;;;;;;0.80;0.80;;;;;;;13.68;72.08;100260.19;10306939;28;20234;-82
2023/01/04 15:57:47;;;;;;;2.90;1.10;;;;;;;13.39;72.15;100260.94;10340403;28;20499;-84
2023/01/04 16:03:10;;;;;;;1.30;1.20;;;;;;;13.70;70.53;100257.00;10324421;28;20271;-85
2023/01/04 16:08:33;;;;;;;2.77;1.50;;;;;;;13.20;71.71;100260.47;10304189;28;20257;-86
2023/01/04 16:13:55;;;;;;;3.30;1.60;;;;;;;13.35;70.90;100251.50;10322055;28;20310;-85
2023/01/04 16:19:17;;;;;;;3.83;1.00;;;;;;;13.22;72.17;100258.16;10313971;28;20756;-83
2023/01/04 16:24:39;;;;;;;2.27;1.37;;;;;;;13.29;70.93;100247.22;10320306;28;20276;-83
2023/01/04 16:30:03;;;;;;;3.77;1.20;;;;;;;13.78;69.26;100247.72;10301057;28;20634;-85
2023/01/04 16:35:25;;;;;;;4.20;1.47;;;;;;;13.25;70.70;100263.13;10317662;28;20642;-84
2023/01/04 16:40:55;;;;;;;4.13;1.30;;;;;;;13.94;67.62;100260.06;10318911;28;20251;-83
2023/01/04 16:46:29;;;;;;;9.23;1.97;;;;;;;13.70;69.28;100254.19;10301420;28;21615;-84
2023/01/04 16:51:53;;;;;;;4.70;1.63;;;;;;;13.92;67.94;100242.66;10322357;28;20209;-85
2023/01/04 16:57:15;;;;;;;5.00;1.40;;;;;;;13.67;68.52;100246.44;10322618;28;20250;-84
2023/01/04 17:02:37;;;;;;;3.67;1.20;;;;;;;13.88;67.73;100231.22;10319805;28;20229;-83
2023/01/04 17:08:00;;;;;;;3.00;1.23;;;;;;;13.60;68.25;100254.56;10326498;28;20296;-84
2023/01/04 17:13:22;;;;;;;6.20;0.90;;;;;;;13.01;69.67;100251.59;10323910;28;20302;-85
2023/01/04 17:18:44;;;;;;;6.47;1.50;;;;;;;13.55;67.73;100253.59;10310285;28;20229;-86
2023/01/04 17:24:08;;;;;;;5.07;1.03;;;;;;;12.80;73.23;100257.88;10327702;28;20263;-84
2023/01/04 17:29:31;;;;;;;2.30;0.80;;;;;;;13.65;69.98;100245.94;10306603;28;20252;-85
2023/01/04 17:34:53;;;;;;;2.83;0.80;;;;;;;13.44;71.43;100272.00;10326188;28;20256;-85
2023/01/04 17:40:16;;;;;;;2.30;0.47;;;;;;;12.94;73.53;100240.81;10319255;28;20253;-83
2023/01/04 17:45:38;;;;;;;1.23;0.50;;;;;;;12.67;73.49;100253.25;10325637;28;20247;-86
2023/01/04 17:51:14;;;;;;;2.03;0.60;;;;;;;12.81;73.09;100239.84;10316091;28;20647;-84
2023/01/04 17:56:36;;;;;;;2.83;0.80;;;;;;;12.91;71.38;100241.50;10313172;28;21740;-85
2023/01/04 18:01:59;;;;;;;1.93;0.60;;;;;;;13.63;67.81;100239.81;10318850;28;20237;-84
2023/01/04 18:07:23;;;;;;;3.37;0.80;;;;;;;13.31;70.79;100260.94;10331180;28;20288;-81
2023/01/04 18:12:46;;;;;;;4.10;2.00;;;;;;;13.73;69.52;100264.81;10310801;28;20260;-82
2023/01/04 18:18:08;;;;;;;3.73;1.40;;;;;;;13.13;71.32;100269.44;10318926;28;20233;-81
2023/01/04 18:23:30;;;;;;;10.13;2.47;;;;;;;13.36;69.53;100286.94;10311082;28;20237;-83
2023/01/04 18:28:52;;;;;;;12.20;2.67;;;;;;;13.49;67.70;100285.91;10338236;28;20273;-83
2023/01/04 18:34:16;;;;;;;10.37;2.30;;;;;;;12.95;69.78;100276.25;10327128;28;20405;-86
2023/01/04 18:39:38;;;;;;;14.23;2.60;;;;;;;12.82;69.26;100283.72;10329634;28;20299;-87
2023/01/04 18:45:00;;;;;;;7.67;1.70;;;;;;;13.19;67.88;100287.81;10332177;28;20219;-82
2023/01/04 18:50:23;;;;;;;12.87;2.57;;;;;;;12.94;68.10;100287.84;10318107;28;20257;-86
2023/01/04 18:55:46;;;;;;;10.33;2.70;;;;;;;12.75;69.42;100311.56;10352303;28;20331;-87
2023/01/04 19:01:11;;;;;;;11.23;3.00;;;;;;;13.78;65.20;100299.28;10352425;28;20599;-86
2023/01/04 19:06:33;;;;;;;10.50;2.43;;;;;;;13.71;65.19;100298.13;10313125;28;20233;-86
2023/01/04 19:11:55;;;;;;;15.13;2.97;;;;;;;13.26;66.01;100298.59;10322155;28;20705;-87
2023/01/04 19:17:23;;;;;;;11.97;2.67;;;;;;;13.71;64.00;100281.22;10322022;28;20202;-86
2023/01/04 19:22:45;;;;;;;13.03;2.93;;;;;;;13.38;63.74;100312.81;10317307;28;20218;-85
2023/01/04 19:28:09;;;;;;;18.40;3.87;;;;;;;13.32;63.96;100314.13;10340420;28;20237;-83
2023/01/04 19:33:31;;;;;;;14.17;3.07;;;;;;;13.45;63.83;100284.09;10320094;28;20615;-83
2023/01/04 19:38:54;;;;;;;17.53;3.40;;;;;;;13.45;63.25;100287.75;10316792;28;20230;-82
2023/01/04 19:44:16;;;;;;;15.33;3.40;;;;;;;13.74;61.99;100292.66;10316308;28;20312;-82
2023/01/04 19:49:38;;;;;;;15.33;3.57;;;;;;;13.47;62.83;100301.50;10322921;28;20249;-82
2023/01/04 19:55:00;;;;;;;18.33;3.80;;;;;;;13.28;62.74;100292.63;10303156;28;20265;-82
2023/01/04 20:00:23;;;;;;;19.43;4.50;;;;;;;12.73;65.46;100307.41;10322024;28;20225;-82
2023/01/04 20:05:45;;;;;;;20.93;4.00;;;;;;;12.81;64.79;100284.88;10322618;28;20233;-85
2023/01/04 20:11:08;;;;;;;20.77;4.03;;;;;;;13.39;62.44;100297.56;10328964;28;20249;-82
2023/01/04 20:16:30;;;;;;;12.30;3.50;;;;;;;13.18;63.94;100288.13;10307464;28;20244;-83
2023/01/04 20:21:52;;;;;;;20.73;4.13;;;;;;;13.66;61.82;100296.34;10305850;28;20225;-81
2023/01/04 20:27:14;;;;;;;15.17;3.90;;;;;;;13.15;63.76;100317.81;10299168;28;20245;-83
2023/01/04 20:32:37;;;;;;;12.17;3.30;;;;;;;13.02;64.27;100326.44;10340495;28;20705;-85
2023/01/04 20:37:59;;;;;;;16.23;3.17;;;;;;;12.59;65.03;100321.59;10323468;28;20222;-81
2023/01/04 20:43:35;;;;;;;17.13;3.67;;;;;;;13.11;63.82;100313.19;10321600;28;20300;-85
2023/01/04 20:49:01;;;;;;;16.13;3.97;;;;;;;13.06;63.68;100322.63;10339590;28;20249;-81
2023/01/04 20:54:23;;;;;;;16.80;4.17;;;;;;;13.72;60.52;100305.44;10313322;28;20245;-83
2023/01/04 20:59:45;;;;;;;17.23;3.73;;;;;;;13.34;63.29;100334.34;10292468;28;20288;-84
2023/01/04 21:05:08;;;;;;;18.93;4.20;;;;;;;12.69;65.87;100334.53;10321009;28;20230;-84
2023/01/04 21:10:30;;;;;;;16.90;3.93;;;;;;;12.81;64.91;100344.00;10315044;28;20319;-88
2023/01/04 21:15:53;;;;;;;20.47;4.10;;;;;;;12.43;65.70;100334.47;10329828;28;20242;-85
2023/01/04 21:21:16;;;;;;;19.57;4.43;;;;;;;12.65;64.85;100323.13;10323361;28;20205;-87
2023/01/04 21:26:38;;;;;;;17.23;3.87;;;;;;;12.94;62.94;100346.97;10328187;28;20244;-81
2023/01/04 21:32:01;;;;;;;20.83;4.00;;;;;;;13.27;61.82;100336.03;10338644;28;20217;-81
2023/01/04 21:37:23;;;;;;;15.77;4.57;;;;;;;12.91;62.68;100351.31;10325520;28;20611;-81
2023/01/04 21:42:46;;;;;;;19.83;4.20;;;;;;;12.95;62.05;100345.81;10331978;28;20508;-80
2023/01/04 21:48:08;;;;;;;20.07;4.10;;;;;;;12.90;61.09;100343.19;10334634;28;20280;-86
2023/01/04 21:53:32;;;;;;;11.63;3.60;;;;;;;13.13;61.00;100344.66;10330224;28;20193;-87
2023/01/04 21:58:56;;;;;;;25.50;4.60;;;;;;;13.12;61.25;100354.28;10334479;28;20251;-83
2023/01/04 22:04:18;;;;;;;20.03;3.90;;;;;;;13.28;60.13;100338.53;10346653;28;20657;-83
2023/01/04 22:09:40;;;;;;;22.43;4.40;;;;;;;13.36;59.77;100332.03;10351165;28;20218;-81
2023/01/04 22:15:02;;;;;;;16.97;4.47;;;;;;;13.08;61.00;100342.00;10337740;28;20221;-82
2023/01/04 22:20:25;;;;;;;18.70;3.83;;;;;;;12.50;62.48;100351.72;10349094;28;20638;-83
2023/01/04 22:25:47;;;;;;;14.57;3.43;;;;;;;13.26;60.00;100340.84;10349190;28;20274;-82
2023/01/04 22:31:11;;;;;;;19.77;4.10;;;;;;;12.97;60.58;100332.25;10366709;28;20209;-86
2023/01/04 22:36:34;;;;;;;17.53;4.03;;;;;;;12.84;60.19;100350.94;10347388;28;20197;-85
2023/01/04 22:41:56;;;;;;;19.20;4.20;;;;;;;13.33;58.52;100358.03;10345208;28;20572;-85
2023/01/04 22:47:18;;;;;;;20.07;4.00;;;;;;;13.32;58.47;100352.75;10352393;28;21539;-85
2023/01/04 22:52:40;;;;;;;19.27;4.60;;;;;;;13.09;60.02;100383.09;10342284;28;20284;-83
2023/01/04 22:58:02;;;;;;;15.33;3.37;;;;;;;12.95;59.90;100373.97;10347986;28;20770;-83
2023/01/04 23:03:25;;;;;;;19.77;4.87;;;;;;;13.18;58.69;100381.09;10336564;28;20206;-82
2023/01/04 23:08:47;;;;;;;26.50;4.13;;;;;;;12.37;61.43;100392.06;10330716;28;20312;-88
2023/01/04 23:14:13;;;;;;;17.73;4.27;;;;;;;13.09;59.50;100385.91;10335216;28;20206;-87
2023/01/04 23:19:36;;;;;;;14.97;4.07;;;;;;;13.15;58.92;100373.31;10329925;28;20592;-82
2023/01/04 23:24:59;;;;;;;19.73;3.80;;;;;;;13.00;60.01;100369.00;10332076;28;20536;-85
2023/01/04 23:30:21;;;;;;;15.03;3.77;;;;;;;12.72;60.62;100379.75;10322164;28;20228;-85
2023/01/04 23:35:43;;;;;;;18.87;4.17;;;;;;;13.10;58.67;100377.13;10321722;28;20203;-87
2023/01/04 23:41:06;;;;;;;16.73;4.80;;;;;;;13.41;58.19;100388.22;10354221;28;20511;-83
2023/01/04 23:46:28;;;;;;;23.37;4.77;;;;;;;12.95;59.18;100404.94;10346525;28;20255;-82
2023/01/04 23:51:51;;;;;;;16.50;3.67;;;;;;;12.85;59.26;100412.56;10337562;28;20495;-83
2023/01/04 23:57:13;;;;;;;19.57;3.77;;;;;;;13.07;58.67;100399.47;10342679;28;20218;-83
